Terminal Aerodrome Forecast
Issued by NWS

Home | Current Version | Previous Version | Text Only | Print | Product List | Glossary On
Versions: 1 2 3 4 5 6 7 8 9 10 11 12 13 14 15 16 17 18 19 20 21 22 23 24 25
000
FTUS41 KOKX 190200 AAA
TAFHPN
TAF AMD
KHPN 190230Z 1903/1924 36005KT P6SM SCT090
     FM190600 36010KT P6SM SCT070
     FM191200 04012G16KT P6SM FEW030 SCT050
     FM191800 10012KT P6SM FEW035 FEW250
     FM192100 13011KT P6SM SCT035 SCT250
      AMD NOT SKED=

USA.gov is the U.S. government's official web portal to all federal, state and local government web resources and services.